L M Clayton Airport
KOLF : now visible

Airfield :











YOU CAN JOIN US ON...

 
LOGIN :

Register | Disclaimer

   EN    FR    IT 

 









Legend :    VFR   Marginal VFR   IFR   Intensive IFR   Very Intensive IFR
Visi :
Ceiling :
>= 8 km
>= 3000ft
5 to 8 km
1000 to 3000 ft
1500m to 5 km
500 to 1000 ft
800 to 1500m
200 to 500 ft
< 800m
< 200 ft
Symbols :   Thunderstorms  Fog  Heavy snow  Heavy precipitations  Wind > 20 kt






- Airport Elevation : 1986 ft


KOLF - L M Clayton

CURRENT METAR :
  • 221653Z AUTO 25004KT 10SM CLR 05/M02 A2989 RMK AO2 SLP141 T00501017

EXPIRED METARs :
  • 221553Z AUTO 25005KT 10SM CLR 02/M02 A2992 RMK AO2 SLP153 T00171022
  • 221453Z AUTO 25006KT 10SM CLR M01/M04 A2993 RMK AO2 SLP156 T10111039 58011

TAF KOLF
Valid from the 22 at 12:00 until the 23 at 12:00 UTC


221134Z 2212/2312 VRB05KT P6SM FEW080
FM222300 VRB04KT P6SM -SHRA OVC030
FM230600 VRB05KT 6SM -SHRASN OVC011
FM230900 05007KT P6SM OVC035
FM231000 VRB06KT P6SM BKN024



MET'MAP, your aeronautical weather chart ! - Copyright ORBIFLY December 2007 - Disclaimer

ORBIFLY MET'MAP TEAM :

Programming & Development : Alexandra Zaïnal
Concept & Development : Baudouin d'Aumeries
Co-Development & Prog : Marc-Olivier Méhu
Technical & hardware support : Manuel Goepfert

Contact : metmap@orbifly.com




SOURCES & CREDITS :

   NOAA       Earth
Advisory